createdAt,value
2022-11-05T00:00:15.539Z,90.55
2022-11-05T00:02:05.900Z,91.02
2022-11-05T00:03:56.168Z,90.99
2022-11-05T00:05:46.595Z,91.72
2022-11-05T00:07:37.412Z,91.56
2022-11-05T00:09:27.836Z,91.06
2022-11-05T00:11:02.346Z,91.42
2022-11-05T00:12:52.790Z,91.76
2022-11-05T00:14:43.344Z,90.82
2022-11-05T00:16:34.993Z,91.03
2022-11-05T00:18:06.737Z,91.05
2022-11-05T00:19:38.496Z,90.90
2022-11-05T00:21:30.122Z,91.08
2022-11-05T00:23:20.217Z,90.93
2022-11-05T00:25:10.619Z,90.66
2022-11-05T00:26:42.389Z,90.79
2022-11-05T00:28:14.111Z,90.61
2022-11-05T00:29:45.867Z,90.25
2022-11-05T00:31:18.960Z,89.33
2022-11-05T00:32:51.278Z,90.08
2022-11-05T00:34:23.051Z,89.48
2022-11-05T00:35:54.731Z,89.85
2022-11-05T00:37:27.240Z,89.49
2022-11-05T00:38:59.000Z,89.45
2022-11-05T00:40:30.744Z,89.46
2022-11-05T00:42:21.020Z,89.92
2022-11-05T00:44:11.516Z,89.83
2022-11-05T00:45:43.364Z,89.29
2022-11-05T00:47:34.871Z,89.50
2022-11-05T00:49:25.151Z,89.76
2022-11-05T00:50:56.846Z,89.25
2022-11-05T00:52:47.200Z,89.47
2022-11-05T00:54:18.934Z,89.82
2022-11-05T00:55:50.814Z,90.00
2022-11-05T00:57:22.549Z,89.21
2022-11-05T00:58:56.483Z,89.54
2022-11-05T01:00:29.364Z,89.32
2022-11-05T01:02:01.216Z,89.53
2022-11-05T01:03:35.621Z,89.64
2022-11-05T01:05:08.040Z,89.51
2022-11-05T01:06:39.759Z,89.54
2022-11-05T01:08:11.637Z,89.55
2022-11-05T01:09:43.316Z,89.75
2022-11-05T01:11:34.635Z,89.80
2022-11-05T01:13:11.666Z,89.80
2022-11-05T01:14:44.592Z,89.56
2022-11-05T01:16:16.352Z,89.93
2022-11-05T01:17:48.112Z,89.75
2022-11-05T01:19:21.192Z,89.55
2022-11-05T01:20:53.095Z,89.84
2022-11-05T01:22:24.809Z,89.52
2022-11-05T01:23:56.563Z,89.56
2022-11-05T01:25:28.305Z,89.72
2022-11-05T01:27:00.043Z,89.64
2022-11-05T01:28:31.772Z,89.71
2022-11-05T01:30:04.905Z,89.17
2022-11-05T01:31:36.616Z,89.72
2022-11-05T01:33:08.478Z,90.18
2022-11-05T01:34:41.857Z,89.64
2022-11-05T01:36:13.603Z,89.32
2022-11-05T01:37:45.394Z,89.51
2022-11-05T01:39:17.188Z,89.58
2022-11-05T01:40:48.958Z,89.66
2022-11-05T01:42:21.449Z,89.89
2022-11-05T01:43:57.363Z,89.22
2022-11-05T01:45:29.042Z,89.15
2022-11-05T01:47:00.818Z,88.73
2022-11-05T01:48:33.944Z,89.30
2022-11-05T01:50:17.280Z,89.14
2022-11-05T01:51:48.962Z,89.50
2022-11-05T01:53:24.553Z,89.16
2022-11-05T01:54:56.278Z,89.28
2022-11-05T01:56:30.230Z,89.27
2022-11-05T01:58:02.012Z,89.08
2022-11-05T01:59:34.752Z,89.07
2022-11-05T02:01:06.465Z,88.87
2022-11-05T02:02:38.175Z,89.55
2022-11-05T02:04:11.581Z,89.23
2022-11-05T02:05:44.632Z,89.19
2022-11-05T02:07:17.310Z,89.13
2022-11-05T02:08:53.846Z,88.52
2022-11-05T02:10:25.706Z,89.13
2022-11-05T02:11:57.549Z,89.07
2022-11-05T02:13:29.295Z,89.30
2022-11-05T02:15:01.036Z,88.88
2022-11-05T02:16:37.985Z,89.56
2022-11-05T02:18:15.348Z,89.49
2022-11-05T02:20:10.029Z,88.71
2022-11-05T02:22:11.612Z,89.07
2022-11-05T02:24:08.491Z,88.68
2022-11-05T02:26:03.625Z,88.84
2022-11-05T02:27:46.231Z,88.83
2022-11-05T02:29:38.232Z,89.27
2022-11-05T02:31:12.680Z,89.03
2022-11-05T02:33:05.561Z,89.31
2022-11-05T02:34:42.334Z,88.68
2022-11-05T02:36:25.291Z,88.79
2022-11-05T02:37:59.864Z,89.15
2022-11-05T02:39:37.793Z,88.98
2022-11-05T02:41:14.524Z,88.59
2022-11-05T02:42:48.842Z,88.87
2022-11-05T02:44:25.948Z,89.12
2022-11-05T02:46:01.115Z,88.77
2022-11-05T02:47:37.893Z,89.15
2022-11-05T02:49:17.995Z,89.03
2022-11-05T02:50:52.818Z,89.24
2022-11-05T02:52:27.645Z,89.04
2022-11-05T02:54:03.559Z,88.50
2022-11-05T02:55:37.287Z,88.80
2022-11-05T02:57:09.026Z,88.77
2022-11-05T02:58:40.767Z,88.46
2022-11-05T03:00:40.528Z,88.71
2022-11-05T03:02:12.296Z,89.18
2022-11-05T03:03:46.190Z,89.42
2022-11-05T03:05:17.911Z,88.72
2022-11-05T03:07:01.237Z,88.49
2022-11-05T03:08:40.518Z,88.49
2022-11-05T03:10:25.629Z,88.73
2022-11-05T03:12:02.114Z,88.08
2022-11-05T03:13:35.958Z,88.30
2022-11-05T03:15:13.103Z,88.29
2022-11-05T03:16:48.272Z,88.43
2022-11-05T03:18:21.875Z,88.23
2022-11-05T03:19:59.675Z,87.97
2022-11-05T03:21:37.691Z,88.49
2022-11-05T03:23:12.540Z,88.40
2022-11-05T03:24:46.291Z,88.96
2022-11-05T03:26:19.200Z,89.29
2022-11-05T03:27:54.648Z,89.71
2022-11-05T03:29:28.494Z,89.39
2022-11-05T03:31:00.192Z,90.50
2022-11-05T03:32:32.959Z,90.04
2022-11-05T03:34:04.916Z,89.86
2022-11-05T03:35:38.960Z,89.72
2022-11-05T03:37:10.597Z,89.58
2022-11-05T03:38:43.008Z,89.09
2022-11-05T03:40:14.961Z,89.76
2022-11-05T03:41:47.926Z,89.51
2022-11-05T03:43:19.578Z,89.89
2022-11-05T03:44:52.679Z,89.54
2022-11-05T03:46:26.380Z,88.98
2022-11-05T03:47:58.836Z,88.98
2022-11-05T03:49:32.248Z,88.54
2022-11-05T03:51:08.452Z,88.85
2022-11-05T03:52:42.041Z,88.28
2022-11-05T03:54:13.718Z,88.84
2022-11-05T03:55:48.517Z,88.77
2022-11-05T03:57:21.345Z,88.96
2022-11-05T03:58:58.498Z,88.80
2022-11-05T04:00:30.706Z,88.99
2022-11-05T04:02:02.486Z,88.85
2022-11-05T04:03:36.521Z,88.95
2022-11-05T04:05:08.416Z,88.98
2022-11-05T04:07:00.309Z,88.54
2022-11-05T04:08:50.635Z,88.58
2022-11-05T04:10:40.986Z,88.49
2022-11-05T04:12:31.597Z,88.31
2022-11-05T04:14:03.286Z,88.36
2022-11-05T04:15:54.842Z,88.37
2022-11-05T04:17:26.533Z,88.53
2022-11-05T04:18:58.355Z,88.27
2022-11-05T04:20:59.337Z,88.47
2022-11-05T04:22:51.418Z,88.40
2022-11-05T04:24:23.166Z,88.02
2022-11-05T04:25:54.786Z,88.12
2022-11-05T04:27:26.427Z,88.41
2022-11-05T04:29:16.442Z,88.15
2022-11-05T04:30:48.107Z,88.07
2022-11-05T04:32:19.787Z,88.16
2022-11-05T04:33:51.482Z,88.10
2022-11-05T04:35:23.188Z,87.85
2022-11-05T04:36:54.840Z,87.72
2022-11-05T04:38:27.870Z,88.14
2022-11-05T04:39:59.541Z,87.87
2022-11-05T04:41:31.313Z,87.74
2022-11-05T04:43:03.104Z,88.41
2022-11-05T04:44:34.866Z,88.32
2022-11-05T04:46:06.591Z,88.07
2022-11-05T04:47:38.265Z,88.19
2022-11-05T04:49:09.957Z,88.16
2022-11-05T04:50:41.668Z,88.31
2022-11-05T04:52:13.334Z,88.04
2022-11-05T04:53:46.388Z,88.65
2022-11-05T04:55:18.247Z,88.59
2022-11-05T04:56:49.944Z,88.58
2022-11-05T04:58:21.615Z,88.56
2022-11-05T04:59:57.839Z,89.11
2022-11-05T05:01:29.605Z,89.06
2022-11-05T05:03:01.402Z,89.13
2022-11-05T05:04:33.102Z,88.66
2022-11-05T05:06:05.031Z,89.03
2022-11-05T05:07:36.700Z,89.30
2022-11-05T05:09:09.749Z,89.17
2022-11-05T05:10:41.433Z,89.27
2022-11-05T05:12:13.183Z,88.93
2022-11-05T05:13:44.923Z,89.44
2022-11-05T05:15:16.721Z,89.47
2022-11-05T05:16:48.421Z,90.46
2022-11-05T05:18:20.598Z,91.17
2022-11-05T05:20:11.081Z,90.68
2022-11-05T05:21:42.728Z,91.87
2022-11-05T05:23:14.413Z,91.03
2022-11-05T05:24:52.407Z,91.34
2022-11-05T05:26:24.580Z,91.35
2022-11-05T05:27:56.752Z,91.16
2022-11-05T05:29:28.428Z,90.82
2022-11-05T05:31:00.683Z,90.79
2022-11-05T05:32:32.357Z,90.92
2022-11-05T05:34:04.103Z,90.37
2022-11-05T05:35:35.916Z,90.32
2022-11-05T05:37:07.537Z,90.53
2022-11-05T05:38:39.189Z,90.80
2022-11-05T05:40:12.594Z,90.98
2022-11-05T05:41:44.214Z,90.84
2022-11-05T05:43:15.966Z,90.25
2022-11-05T05:44:47.559Z,90.54
2022-11-05T05:46:19.768Z,91.27
2022-11-05T05:47:51.438Z,91.11
2022-11-05T05:49:23.057Z,90.93
2022-11-05T05:50:54.715Z,90.40
2022-11-05T05:52:26.387Z,90.70
2022-11-05T05:53:58.551Z,90.90
2022-11-05T05:55:31.643Z,91.29
2022-11-05T05:57:03.566Z,91.78
2022-11-05T05:58:36.996Z,91.41
2022-11-05T06:00:10.092Z,90.79
2022-11-05T06:01:41.936Z,90.89
2022-11-05T06:03:14.379Z,90.96
2022-11-05T06:04:46.391Z,90.86
2022-11-05T06:06:21.210Z,90.48
2022-11-05T06:07:56.456Z,91.40
2022-11-05T06:09:28.134Z,90.89
2022-11-05T06:11:01.629Z,90.65
2022-11-05T06:12:33.498Z,90.88
2022-11-05T06:14:05.239Z,90.80
2022-11-05T06:15:36.955Z,90.92
2022-11-05T06:17:08.709Z,90.60
2022-11-05T06:18:40.459Z,90.44
2022-11-05T06:20:12.350Z,90.78
2022-11-05T06:21:44.147Z,90.73
2022-11-05T06:23:15.940Z,90.95
2022-11-05T06:24:47.605Z,90.74
2022-11-05T06:26:20.735Z,90.65
2022-11-05T06:27:53.136Z,90.46
2022-11-05T06:29:24.901Z,91.28
2022-11-05T06:30:56.880Z,90.90
2022-11-05T06:32:28.753Z,91.44
2022-11-05T06:34:00.502Z,90.81
2022-11-05T06:35:32.266Z,91.57
2022-11-05T06:37:04.034Z,91.63
2022-11-05T06:38:36.464Z,91.46
2022-11-05T06:40:08.874Z,90.89
2022-11-05T06:42:17.155Z,91.28
2022-11-05T06:43:33.825Z,91.68
2022-11-05T06:45:06.895Z,91.99
2022-11-05T06:46:38.622Z,91.76
2022-11-05T06:48:10.347Z,91.24
2022-11-05T06:49:42.074Z,90.84
2022-11-05T06:51:13.794Z,90.91
2022-11-05T06:52:47.166Z,91.12
2022-11-05T06:54:18.884Z,90.95
2022-11-05T06:55:50.648Z,91.66
2022-11-05T06:57:23.728Z,91.53
2022-11-05T06:58:55.518Z,91.05
2022-11-05T07:00:27.237Z,91.51
2022-11-05T07:01:58.938Z,91.75
2022-11-05T07:03:30.851Z,91.77
2022-11-05T07:05:02.629Z,91.81
2022-11-05T07:06:36.953Z,92.49
2022-11-05T07:08:09.150Z,91.82
2022-11-05T07:09:43.189Z,92.06
2022-11-05T07:11:14.999Z,92.09
2022-11-05T07:12:48.165Z,92.34
2022-11-05T07:14:19.983Z,91.97
2022-11-05T07:15:51.774Z,92.24
2022-11-05T07:17:23.503Z,92.63
2022-11-05T07:18:55.982Z,92.75
2022-11-05T07:20:33.282Z,92.73
2022-11-05T07:22:05.752Z,93.12
2022-11-05T07:23:37.463Z,94.00
2022-11-05T07:25:09.541Z,93.63
2022-11-05T07:26:41.675Z,93.32
2022-11-05T07:28:14.826Z,93.09
2022-11-05T07:29:46.540Z,93.01
2022-11-05T07:31:18.224Z,93.29
2022-11-05T07:32:49.936Z,93.36
2022-11-05T07:34:21.628Z,93.30
2022-11-05T07:35:55.984Z,93.93
2022-11-05T07:37:27.659Z,93.06
2022-11-05T07:39:00.643Z,93.77
2022-11-05T07:40:32.511Z,92.65
2022-11-05T07:42:04.357Z,93.11
2022-11-05T07:43:37.477Z,93.10
2022-11-05T07:45:10.280Z,93.00
2022-11-05T07:46:42.066Z,92.83
2022-11-05T07:48:13.749Z,92.63
2022-11-05T07:49:53.231Z,93.21
2022-11-05T07:51:24.980Z,92.80
2022-11-05T07:53:00.108Z,93.13
2022-11-05T07:54:31.988Z,93.74
2022-11-05T07:56:03.982Z,93.64
2022-11-05T07:57:40.829Z,93.76
2022-11-05T07:59:16.714Z,93.30
2022-11-05T08:00:48.672Z,93.49
2022-11-05T08:02:20.726Z,93.39
2022-11-05T08:03:52.534Z,93.53
2022-11-05T08:05:24.233Z,93.54
2022-11-05T08:06:55.998Z,93.66
2022-11-05T08:08:27.697Z,93.97
2022-11-05T08:09:59.337Z,93.93
2022-11-05T08:11:31.494Z,93.72
2022-11-05T08:13:03.253Z,94.11
2022-11-05T08:14:36.568Z,94.43
2022-11-05T08:16:09.067Z,93.96
2022-11-05T08:17:41.755Z,93.46
2022-11-05T08:19:16.026Z,93.99
2022-11-05T08:20:50.490Z,93.99
2022-11-05T08:22:23.090Z,93.54
2022-11-05T08:23:54.875Z,93.22
2022-11-05T08:25:26.529Z,93.71
2022-11-05T08:26:58.172Z,93.79
2022-11-05T08:28:29.794Z,94.02
2022-11-05T08:30:03.125Z,94.03
2022-11-05T08:31:37.036Z,93.07
2022-11-05T08:33:09.964Z,94.18
2022-11-05T08:34:41.962Z,93.92
2022-11-05T08:36:13.758Z,93.30
2022-11-05T08:37:48.557Z,93.66
2022-11-05T08:39:20.265Z,93.60
2022-11-05T08:40:55.779Z,93.57
2022-11-05T08:42:27.456Z,93.21
2022-11-05T08:43:59.106Z,92.73
2022-11-05T08:45:32.137Z,92.49
2022-11-05T08:47:03.762Z,92.57
2022-11-05T08:48:35.379Z,92.94
2022-11-05T08:50:07.753Z,92.64
2022-11-05T08:51:39.421Z,92.68
2022-11-05T08:53:11.494Z,92.93
2022-11-05T08:54:43.726Z,93.05
2022-11-05T08:57:03.555Z,93.12
2022-11-05T08:58:37.660Z,92.61
2022-11-05T09:01:50.595Z,91.44
2022-11-05T09:03:22.495Z,91.63
2022-11-05T09:04:54.085Z,91.69
2022-11-05T09:06:25.761Z,91.74
2022-11-05T09:08:01.008Z,91.83
2022-11-05T09:09:33.380Z,92.78
2022-11-05T09:11:07.763Z,92.94
2022-11-05T09:12:39.413Z,91.28
2022-11-05T09:14:11.109Z,91.42
2022-11-05T09:15:42.728Z,91.49
2022-11-05T09:17:17.504Z,91.17
2022-11-05T09:18:50.236Z,91.19
2022-11-05T09:20:22.131Z,90.61
2022-11-05T09:21:53.996Z,90.23
2022-11-05T09:23:25.621Z,90.66
2022-11-05T09:24:57.227Z,90.24
2022-11-05T09:26:29.073Z,90.64
2022-11-05T09:28:08.381Z,90.14
2022-11-05T09:29:39.995Z,90.08
2022-11-05T09:31:11.776Z,89.94
2022-11-05T09:32:44.806Z,89.79
2022-11-05T09:34:16.461Z,89.74
2022-11-05T09:35:48.080Z,89.73
2022-11-05T09:37:19.706Z,89.63
2022-11-05T09:38:51.419Z,90.25
2022-11-05T09:40:23.141Z,90.49
2022-11-05T09:41:55.768Z,89.38
2022-11-05T09:43:31.883Z,90.10
2022-11-05T09:45:04.519Z,90.03
2022-11-05T09:46:39.030Z,90.09
2022-11-05T09:48:14.737Z,89.85
2022-11-05T09:49:48.568Z,89.23
2022-11-05T09:51:23.906Z,89.79
2022-11-05T09:52:56.057Z,89.53
2022-11-05T09:54:31.602Z,89.43
2022-11-05T09:56:03.383Z,89.05
2022-11-05T09:57:37.191Z,89.60
2022-11-05T09:59:14.554Z,89.63
2022-11-05T10:00:48.654Z,89.22
2022-11-05T10:02:21.802Z,89.47
2022-11-05T10:03:57.165Z,88.77
2022-11-05T10:05:28.909Z,88.87
2022-11-05T10:07:02.614Z,88.30
2022-11-05T10:09:16.920Z,89.01
2022-11-05T10:11:10.523Z,89.06
2022-11-05T10:13:06.398Z,89.28
2022-11-05T10:15:31.033Z,88.79
2022-11-05T10:17:05.362Z,88.55
2022-11-05T10:23:44.327Z,88.50
2022-11-05T10:26:05.934Z,88.51
2022-11-05T10:28:54.445Z,89.04
2022-11-05T10:30:26.141Z,89.04
2022-11-05T10:32:08.929Z,89.92
2022-11-05T10:33:42.536Z,89.56
2022-11-05T10:35:22.489Z,89.96
2022-11-05T10:37:13.187Z,89.82
2022-11-05T10:38:45.429Z,88.53
2022-11-05T10:43:34.448Z,88.41
2022-11-05T10:45:11.879Z,88.71
2022-11-05T10:46:51.133Z,88.34
2022-11-05T10:48:29.996Z,88.87
2022-11-05T10:50:02.509Z,88.85
2022-11-05T10:51:34.594Z,88.66
2022-11-05T10:53:12.950Z,88.91
2022-11-05T10:54:44.743Z,89.17
2022-11-05T10:56:33.391Z,88.61
2022-11-05T10:58:09.794Z,88.87
2022-11-05T10:59:41.521Z,88.68
2022-11-05T11:01:13.329Z,88.75
2022-11-05T11:02:46.667Z,88.14
2022-11-05T11:04:22.230Z,87.98
2022-11-05T11:05:58.064Z,88.18
2022-11-05T11:07:30.351Z,87.58
2022-11-05T11:09:05.827Z,88.15
2022-11-05T11:10:41.054Z,88.49
2022-11-05T11:12:15.136Z,87.59
2022-11-05T11:13:50.060Z,87.48
2022-11-05T11:15:24.434Z,86.83
2022-11-05T11:16:57.666Z,86.36
2022-11-05T11:18:32.438Z,86.36
2022-11-05T11:20:20.711Z,85.72
2022-11-05T11:22:21.180Z,85.36
2022-11-05T11:23:54.477Z,84.50
2022-11-05T11:25:28.804Z,85.09
2022-11-05T11:27:01.446Z,84.23
2022-11-05T11:28:34.934Z,84.19
2022-11-05T11:30:07.593Z,83.74
2022-11-05T11:31:39.507Z,83.32
2022-11-05T11:33:11.410Z,84.50
2022-11-05T11:34:43.393Z,83.35
2022-11-05T11:36:16.722Z,82.87
2022-11-05T11:37:48.388Z,83.46
2022-11-05T11:39:21.729Z,83.20
2022-11-05T11:41:01.983Z,82.63
2022-11-05T11:42:34.668Z,83.74
2022-11-05T11:44:08.570Z,84.40
2022-11-05T11:45:44.957Z,83.17
2022-11-05T11:47:18.323Z,82.63
2022-11-05T11:48:49.968Z,83.70
2022-11-05T11:50:36.345Z,82.93
2022-11-05T11:52:10.704Z,83.02
2022-11-05T11:53:42.342Z,82.44
2022-11-05T11:55:19.678Z,82.02
2022-11-05T11:56:52.675Z,82.70
2022-11-05T11:58:34.858Z,82.41
2022-11-05T12:00:09.832Z,82.27
2022-11-05T12:02:06.049Z,81.86
2022-11-05T12:03:39.858Z,81.90
2022-11-05T12:05:19.851Z,83.03
2022-11-05T12:06:56.747Z,82.99
2022-11-05T12:08:45.325Z,82.24
2022-11-05T12:10:23.519Z,82.38
2022-11-05T12:12:00.322Z,83.11
2022-11-05T12:14:03.878Z,82.91
2022-11-05T12:15:40.950Z,83.47
2022-11-05T12:17:19.674Z,81.69
2022-11-05T12:18:54.701Z,82.70
2022-11-05T12:20:38.744Z,83.37
2022-11-05T12:22:15.066Z,83.67
2022-11-05T12:24:25.731Z,83.74
2022-11-05T12:25:58.858Z,82.87
2022-11-05T12:27:51.410Z,84.39
2022-11-05T12:29:36.263Z,83.84
2022-11-05T12:31:13.625Z,83.52
2022-11-05T12:32:57.549Z,83.52
2022-11-05T12:34:37.950Z,82.80
2022-11-05T12:36:15.549Z,83.74
2022-11-05T12:37:51.165Z,83.06
2022-11-05T12:39:30.660Z,82.52
2022-11-05T12:41:09.548Z,82.33
2022-11-05T12:42:55.467Z,82.90
2022-11-05T12:44:59.579Z,82.91
2022-11-05T12:46:34.889Z,81.10
2022-11-05T12:48:14.531Z,81.87
2022-11-05T12:49:53.453Z,81.31
2022-11-05T12:51:35.388Z,82.07
2022-11-05T12:53:22.795Z,82.34
2022-11-05T12:55:01.901Z,80.95
2022-11-05T12:56:38.784Z,83.36
2022-11-05T12:58:13.503Z,84.02
2022-11-05T12:59:47.745Z,86.00
2022-11-05T13:01:23.230Z,85.98
2022-11-05T13:02:56.504Z,86.35
2022-11-05T13:04:34.244Z,86.76
2022-11-05T13:06:07.306Z,87.87
2022-11-05T13:07:39.757Z,87.78
2022-11-05T13:09:13.391Z,86.59
2022-11-05T13:10:57.052Z,85.15
2022-11-05T13:12:30.270Z,86.16
2022-11-05T13:14:06.227Z,87.46
2022-11-05T13:15:41.999Z,87.72
2022-11-05T13:17:15.021Z,88.14
2022-11-05T13:18:48.187Z,88.16
2022-11-05T13:20:20.971Z,90.09
2022-11-05T13:21:53.994Z,90.00
2022-11-05T13:23:29.666Z,88.79
2022-11-05T13:25:04.744Z,89.14
2022-11-05T13:26:38.725Z,88.49
2022-11-05T13:28:14.656Z,89.26
2022-11-05T13:29:48.671Z,89.08
2022-11-05T13:31:21.927Z,88.69
2022-11-05T13:32:56.253Z,88.41
2022-11-05T13:34:28.092Z,87.86
2022-11-05T13:36:22.215Z,90.12
2022-11-05T13:38:15.076Z,90.76
2022-11-05T13:39:48.243Z,88.42
2022-11-05T13:41:25.076Z,87.14
2022-11-05T13:43:21.981Z,87.17
2022-11-05T13:45:22.820Z,86.56
2022-11-05T13:47:11.795Z,87.94
2022-11-05T13:49:12.690Z,86.65
2022-11-05T13:50:58.379Z,86.24
2022-11-05T13:52:42.533Z,87.05
2022-11-05T13:54:33.226Z,84.77
2022-11-05T13:56:09.926Z,86.43
2022-11-05T13:58:01.095Z,85.53
2022-11-05T13:59:55.355Z,85.75
2022-11-05T14:01:41.862Z,86.06
2022-11-05T14:03:16.364Z,84.96
2022-11-05T14:04:49.176Z,84.40
2022-11-05T14:06:23.616Z,85.28
2022-11-05T14:07:55.400Z,83.69
2022-11-05T14:09:27.465Z,84.79
2022-11-05T14:11:00.687Z,83.70
2022-11-05T14:12:33.066Z,83.20
2022-11-05T14:14:06.747Z,84.85
2022-11-05T14:15:38.497Z,83.47
2022-11-05T14:17:27.313Z,82.96
2022-11-05T14:19:28.370Z,82.49
2022-11-05T14:21:01.580Z,83.07
2022-11-05T14:22:40.780Z,83.40
2022-11-05T14:24:25.912Z,82.73
2022-11-05T14:25:57.937Z,83.77
2022-11-05T14:27:43.652Z,83.79
2022-11-05T14:29:22.506Z,83.53
2022-11-05T14:30:54.245Z,85.14
2022-11-05T14:32:28.346Z,85.22
2022-11-05T14:34:02.427Z,84.81
2022-11-05T14:35:36.298Z,83.25
2022-11-05T14:37:30.265Z,83.47
2022-11-05T14:39:21.210Z,83.51
2022-11-05T14:40:58.505Z,82.59
2022-11-05T14:42:30.398Z,83.90
2022-11-05T14:44:05.813Z,83.60
2022-11-05T14:45:38.170Z,84.12
2022-11-05T14:47:19.985Z,85.78
2022-11-05T14:48:54.256Z,85.02
2022-11-05T14:50:30.738Z,85.07
2022-11-05T14:52:06.647Z,86.69
2022-11-05T14:53:38.991Z,86.18
2022-11-05T14:55:25.802Z,85.76
2022-11-05T14:56:58.424Z,83.75
2022-11-05T14:58:35.506Z,84.18
2022-11-05T15:00:41.596Z,85.37
2022-11-05T15:02:14.800Z,85.15
2022-11-05T15:04:16.048Z,86.77
2022-11-05T15:05:50.247Z,85.49
2022-11-05T15:07:35.765Z,85.41
2022-11-05T15:09:17.452Z,85.59
2022-11-05T15:10:49.091Z,84.20
2022-11-05T15:12:24.190Z,85.19
2022-11-05T15:14:00.974Z,86.68
2022-11-05T15:15:40.370Z,86.46
2022-11-05T15:17:16.424Z,86.78
2022-11-05T15:18:48.072Z,85.62
2022-11-05T15:20:22.187Z,85.86
2022-11-05T15:22:01.246Z,85.90
2022-11-05T15:23:38.220Z,86.94
2022-11-05T15:25:18.410Z,86.90
2022-11-05T15:26:54.147Z,85.40
2022-11-05T15:28:28.997Z,86.69
2022-11-05T15:30:05.305Z,87.69
2022-11-05T15:31:37.556Z,87.36
2022-11-05T15:33:10.825Z,87.81
2022-11-05T15:34:55.477Z,87.38
2022-11-05T15:36:29.942Z,86.50
2022-11-05T15:38:02.688Z,87.08
2022-11-05T15:39:42.255Z,86.73
2022-11-05T15:41:15.568Z,86.48
2022-11-05T15:42:47.433Z,86.20
2022-11-05T15:44:24.571Z,85.86
2022-11-05T15:46:04.696Z,86.61
2022-11-05T15:47:36.509Z,87.58
2022-11-05T15:49:09.123Z,88.22
2022-11-05T15:50:41.049Z,87.50
2022-11-05T15:52:15.289Z,90.38
2022-11-05T15:55:51.807Z,87.30
2022-11-05T15:57:26.253Z,88.28
2022-11-05T15:59:00.141Z,86.71
2022-11-05T16:00:32.696Z,86.72
2022-11-05T16:02:16.815Z,88.44
2022-11-05T16:03:48.683Z,84.31
2022-11-05T16:05:20.361Z,86.28
2022-11-05T16:06:53.889Z,86.15
2022-11-05T16:08:29.161Z,85.56
2022-11-05T16:10:01.439Z,84.62
2022-11-05T16:11:33.295Z,85.26
2022-11-05T16:13:28.767Z,85.18
2022-11-05T16:15:17.829Z,84.78
2022-11-05T16:16:49.553Z,84.23
2022-11-05T16:18:21.858Z,84.76
2022-11-05T16:19:53.624Z,84.05
2022-11-05T16:21:25.329Z,83.72
2022-11-05T16:22:57.774Z,85.79
2022-11-05T16:24:30.953Z,85.93
2022-11-05T16:26:02.601Z,85.97
2022-11-05T16:27:34.216Z,86.90
2022-11-05T16:29:11.140Z,87.70
2022-11-05T16:30:52.138Z,86.68
2022-11-05T16:32:29.861Z,85.52
2022-11-05T16:34:02.640Z,86.09
2022-11-05T16:35:34.269Z,85.94
2022-11-05T16:37:06.723Z,85.42
2022-11-05T16:38:38.531Z,87.46
2022-11-05T16:40:14.868Z,87.34
2022-11-05T16:41:48.400Z,88.09
2022-11-05T16:43:21.406Z,88.15
2022-11-05T16:44:54.947Z,88.26
2022-11-05T16:46:28.732Z,87.36
2022-11-05T16:48:00.610Z,87.70
2022-11-05T16:49:32.237Z,88.16
2022-11-05T16:51:04.046Z,87.37
2022-11-05T16:52:35.673Z,87.02
2022-11-05T16:54:07.315Z,86.57
2022-11-05T16:55:41.259Z,86.51
2022-11-05T16:57:18.719Z,86.40
2022-11-05T16:58:50.454Z,87.25
2022-11-05T17:00:22.429Z,86.97
2022-11-05T17:01:55.944Z,87.34
2022-11-05T17:03:30.616Z,87.82
2022-11-05T17:05:02.244Z,87.86
2022-11-05T17:06:33.878Z,87.94
2022-11-05T17:08:05.748Z,87.54
2022-11-05T17:09:37.407Z,88.13
2022-11-05T17:11:13.729Z,88.25
2022-11-05T17:12:48.196Z,87.97
2022-11-05T17:14:22.446Z,87.19
2022-11-05T17:15:56.726Z,87.88
2022-11-05T17:17:29.140Z,87.75
2022-11-05T17:19:00.761Z,88.04
2022-11-05T17:20:40.734Z,89.07
2022-11-05T17:22:12.789Z,89.37
2022-11-05T17:23:44.435Z,88.75
2022-11-05T17:25:16.063Z,88.98
2022-11-05T17:26:51.330Z,88.69
2022-11-05T17:28:23.084Z,88.59
2022-11-05T17:29:54.849Z,88.12
2022-11-05T17:31:27.266Z,88.65
2022-11-05T17:32:59.200Z,88.50
2022-11-05T17:34:30.984Z,88.06
2022-11-05T17:36:05.564Z,88.88
2022-11-05T17:37:37.223Z,88.59
2022-11-05T17:39:08.896Z,89.02
2022-11-05T17:40:40.582Z,87.72
2022-11-05T17:42:13.579Z,89.07
2022-11-05T17:43:48.324Z,89.73
2022-11-05T17:45:28.910Z,88.81
2022-11-05T17:47:00.503Z,88.66
2022-11-05T17:50:25.176Z,89.21
2022-11-05T17:51:56.818Z,88.04
2022-11-05T17:53:28.759Z,86.98
2022-11-05T17:55:00.441Z,88.16
2022-11-05T17:56:34.961Z,89.08
2022-11-05T17:58:09.443Z,88.22
2022-11-05T17:59:42.060Z,87.22
2022-11-05T18:01:25.160Z,88.36
2022-11-05T18:02:56.956Z,88.67
2022-11-05T18:04:29.968Z,88.08
2022-11-05T18:06:02.256Z,89.09
2022-11-05T18:07:37.119Z,88.58
2022-11-05T18:09:12.042Z,89.07
2022-11-05T18:10:45.769Z,90.81
2022-11-05T18:12:17.404Z,89.03
2022-11-05T18:13:53.524Z,89.67
2022-11-05T18:15:27.018Z,88.92
2022-11-05T18:17:00.283Z,90.24
2022-11-05T18:18:31.972Z,88.65
2022-11-05T18:20:04.215Z,87.83
2022-11-05T18:21:35.911Z,88.46
2022-11-05T18:23:07.543Z,88.40
2022-11-05T18:24:39.158Z,87.08
2022-11-05T18:26:11.100Z,89.00
2022-11-05T18:27:42.805Z,88.70
2022-11-05T18:29:15.886Z,87.87
2022-11-05T18:30:47.683Z,88.58
2022-11-05T18:32:19.354Z,88.82
2022-11-05T18:33:51.266Z,89.51
2022-11-05T18:35:22.888Z,89.76
2022-11-05T18:36:56.516Z,89.39
2022-11-05T18:38:28.433Z,88.27
2022-11-05T18:40:00.061Z,87.76
2022-11-05T18:41:31.695Z,87.61
2022-11-05T18:43:03.344Z,89.91
2022-11-05T18:44:39.243Z,88.76
2022-11-05T18:46:29.187Z,89.65
2022-11-05T18:48:03.643Z,89.79
2022-11-05T18:49:36.256Z,88.82
2022-11-05T18:51:08.825Z,88.08
2022-11-05T18:52:40.450Z,88.51
2022-11-05T18:54:12.055Z,88.55
2022-11-05T18:55:43.691Z,88.13
2022-11-05T18:57:15.407Z,87.92
2022-11-05T18:58:47.251Z,87.16
2022-11-05T19:00:20.610Z,87.81
2022-11-05T19:01:52.987Z,87.74
2022-11-05T19:03:24.733Z,87.58
2022-11-05T19:05:22.542Z,87.68
2022-11-05T19:06:48.212Z,88.01
2022-11-05T19:08:19.939Z,88.04
2022-11-05T19:09:51.623Z,87.52
2022-11-05T19:11:24.501Z,87.84
2022-11-05T19:12:56.380Z,87.58
2022-11-05T19:14:28.080Z,87.20
2022-11-05T19:16:01.164Z,87.55
2022-11-05T19:17:33.206Z,87.27
2022-11-05T19:19:05.070Z,88.74
2022-11-05T19:20:37.916Z,88.37
2022-11-05T19:22:10.293Z,87.62
2022-11-05T19:23:42.087Z,87.98
2022-11-05T19:25:13.721Z,87.83
2022-11-05T19:26:53.748Z,87.64
2022-11-05T19:28:25.645Z,87.66
2022-11-05T19:29:57.297Z,87.50
2022-11-05T19:31:34.567Z,87.53
2022-11-05T19:33:06.209Z,89.69
2022-11-05T19:34:37.900Z,88.63
2022-11-05T19:36:10.193Z,87.89
2022-11-05T19:37:41.920Z,88.21
2022-11-05T19:39:14.104Z,88.40
2022-11-05T19:40:45.833Z,87.76
2022-11-05T19:42:17.640Z,88.29
2022-11-05T19:43:49.383Z,89.19
2022-11-05T19:45:43.718Z,90.07
2022-11-05T19:47:14.103Z,90.76
2022-11-05T19:48:45.859Z,90.75
2022-11-05T19:50:17.734Z,91.42
2022-11-05T19:51:49.428Z,90.80
2022-11-05T19:53:21.144Z,90.63
2022-11-05T19:54:52.753Z,91.28
2022-11-05T19:56:25.764Z,90.56
2022-11-05T19:57:57.426Z,90.60
2022-11-05T19:59:31.495Z,90.36
2022-11-05T20:01:03.346Z,90.84
2022-11-05T20:02:36.581Z,89.23
2022-11-05T20:04:12.049Z,89.51
2022-11-05T20:05:43.898Z,88.48
2022-11-05T20:07:15.568Z,88.75
2022-11-05T20:09:15.233Z,88.80
2022-11-05T20:10:41.680Z,88.55
2022-11-05T20:12:13.338Z,88.31
2022-11-05T20:13:45.066Z,88.50
2022-11-05T20:15:22.063Z,89.03
2022-11-05T20:16:59.304Z,88.29
2022-11-05T20:18:32.587Z,87.47
2022-11-05T20:20:05.259Z,88.43
2022-11-05T20:21:37.067Z,87.75
2022-11-05T20:23:08.863Z,88.15
2022-11-05T20:24:40.633Z,87.94
2022-11-05T20:26:12.314Z,88.58
2022-11-05T20:27:44.067Z,89.24
2022-11-05T20:29:15.695Z,88.82
2022-11-05T20:30:47.323Z,88.58
2022-11-05T20:32:19.018Z,88.21
2022-11-05T20:33:52.356Z,88.15
2022-11-05T20:35:24.053Z,88.34
2022-11-05T20:36:55.771Z,88.57
2022-11-05T20:38:27.366Z,88.31
2022-11-05T20:39:58.943Z,87.90
2022-11-05T20:41:31.498Z,88.28
2022-11-05T20:43:03.094Z,88.00
2022-11-05T20:44:34.781Z,88.25
2022-11-05T20:46:06.763Z,88.12